Time;durP1;ratioP1;P1;durP2;ratioP2;P2;SDS_P1;SDS_P2;PMS_P1;PMS_P2;Temp;Humidity;BMP_temperature;BMP_pressure;BME280_temperature;BME280_humidity;BME280_pressure;Samples;Min_cycle;Max_cycle;Signal;HPM_P1;HPM_P2
2022/04/10 00:01:45;;;;;;;15.30;5.20;;;;;;;6.86;54.32;101844.25;5193580;28;20516;-39
2022/04/10 00:04:18;;;;;;;12.73;4.05;;;;;;;6.87;54.02;101856.44;5193427;28;20893;-38
2022/04/10 00:06:50;;;;;;;11.88;4.60;;;;;;;6.85;54.08;101857.50;5196179;28;20422;-39
2022/04/10 00:09:22;;;;;;;14.23;4.80;;;;;;;6.80;54.10;101870.91;5190641;28;20508;-39
2022/04/10 00:11:55;;;;;;;19.23;5.55;;;;;;;6.77;53.92;101852.75;5199874;28;20467;-38
2022/04/10 00:14:29;;;;;;;17.88;5.50;;;;;;;6.66;54.08;101836.88;5198469;28;20487;-42
2022/04/10 00:17:01;;;;;;;13.98;4.05;;;;;;;6.69;53.87;101852.41;5191929;28;20410;-39
2022/04/10 00:19:34;;;;;;;19.67;5.80;;;;;;;6.64;54.07;101859.75;5195268;28;20921;-39
2022/04/10 00:22:06;;;;;;;17.90;6.03;;;;;;;6.60;54.15;101847.75;5193871;28;20566;-39
2022/04/10 00:24:39;;;;;;;14.48;5.55;;;;;;;6.61;53.99;101854.69;5195485;28;20501;-39
2022/04/10 00:27:13;;;;;;;15.32;4.68;;;;;;;6.56;53.98;101843.63;5197559;28;20892;-38
2022/04/10 00:29:47;;;;;;;12.18;4.22;;;;;;;6.56;53.93;101854.13;5189849;28;20415;-42
2022/04/10 00:32:20;;;;;;;22.00;5.40;;;;;;;6.49;54.04;101839.72;5195227;28;20413;-40
2022/04/10 00:34:52;;;;;;;15.13;4.32;;;;;;;6.53;53.98;101844.66;5188734;28;20438;-39
2022/04/10 00:37:25;;;;;;;12.43;4.90;;;;;;;6.50;54.12;101841.41;5192791;28;20911;-40
2022/04/10 00:39:57;;;;;;;12.65;4.75;;;;;;;6.47;54.08;101845.06;5196572;28;20445;-39
2022/04/10 00:42:33;;;;;;;12.63;4.25;;;;;;;6.44;54.15;101838.25;5192919;28;20407;-39
2022/04/10 00:45:10;;;;;;;12.63;4.60;;;;;;;6.40;54.12;101836.75;5189584;28;20426;-39
2022/04/10 00:47:44;;;;;;;14.05;4.32;;;;;;;6.34;54.16;101829.25;5187979;28;20865;-41
2022/04/10 00:50:19;;;;;;;11.07;4.00;;;;;;;6.32;53.97;101835.53;5190354;28;20810;-39
2022/04/10 00:52:52;;;;;;;13.73;4.03;;;;;;;6.34;53.92;101837.13;5198587;28;20500;-39
2022/04/10 00:55:24;;;;;;;10.27;4.43;;;;;;;6.26;54.04;101822.84;5194095;28;21044;-38
2022/04/10 00:57:57;;;;;;;16.20;5.43;;;;;;;6.17;53.93;101819.03;5197178;28;20816;-38
2022/04/10 01:00:31;;;;;;;14.48;5.55;;;;;;;6.27;53.92;101835.84;5194780;28;20479;-39
2022/04/10 01:03:03;;;;;;;18.63;5.55;;;;;;;6.07;53.91;101807.41;5194516;28;20893;-39
2022/04/10 01:05:36;;;;;;;15.43;5.20;;;;;;;6.19;53.81;101832.84;5202712;28;20424;-39
2022/04/10 01:08:09;;;;;;;14.15;4.38;;;;;;;6.20;54.10;101839.81;5197200;28;20492;-39
2022/04/10 01:10:43;;;;;;;23.23;5.70;;;;;;;6.14;54.13;101834.94;5182398;28;20471;-38
2022/04/10 01:13:16;;;;;;;19.00;5.18;;;;;;;6.10;54.03;101833.44;5195414;28;20407;-40
2022/04/10 01:15:50;;;;;;;14.63;4.40;;;;;;;6.11;53.92;101843.00;5193439;28;20486;-40
2022/04/10 01:18:23;;;;;;;13.70;5.53;;;;;;;6.08;53.94;101840.56;5196554;28;20437;-40
2022/04/10 01:20:55;;;;;;;15.52;4.57;;;;;;;6.06;53.83;101847.69;5198674;28;20984;-39
2022/04/10 01:23:29;;;;;;;17.67;5.27;;;;;;;5.99;54.05;101837.59;5197944;28;20502;-42
2022/04/10 01:26:02;;;;;;;18.40;5.67;;;;;;;5.90;54.17;101826.78;5197141;28;20905;-39
2022/04/10 01:28:35;;;;;;;15.83;4.90;;;;;;;5.96;54.15;101848.25;5196278;28;20531;-39
2022/04/10 01:31:07;;;;;;;8.77;3.90;;;;;;;5.94;54.27;101858.00;5200740;28;20424;-42
2022/04/10 01:33:39;;;;;;;19.20;5.57;;;;;;;5.72;54.00;101813.03;5199695;28;20425;-43
2022/04/10 01:36:12;;;;;;;17.25;4.97;;;;;;;5.95;54.28;101872.81;5203134;28;20421;-39
2022/04/10 01:39:21;;;;;;;20.13;4.93;;;;;;;5.97;54.30;101862.22;5194705;28;20425;-38
2022/04/10 01:41:53;;;;;;;19.15;5.13;;;;;;;5.97;54.38;101857.81;5191030;28;20426;-38
2022/04/10 01:44:26;;;;;;;12.30;4.75;;;;;;;5.99;54.30;101863.81;5193478;28;20454;-38
2022/04/10 01:46:59;;;;;;;13.25;4.57;;;;;;;5.97;54.43;101860.41;5181901;28;20977;-38
2022/04/10 01:49:31;;;;;;;10.02;4.28;;;;;;;6.04;54.27;101855.66;5192777;28;20861;-38
2022/04/10 01:52:04;;;;;;;13.77;4.80;;;;;;;6.03;54.29;101866.22;5197649;28;20500;-39
2022/04/10 01:54:38;;;;;;;13.23;4.47;;;;;;;6.00;54.24;101865.47;5193160;28;20514;-43
2022/04/10 01:57:11;;;;;;;8.85;3.95;;;;;;;5.96;54.20;101866.63;5197070;28;20403;-39
2022/04/10 01:59:43;;;;;;;13.80;5.53;;;;;;;5.97;54.26;101870.91;5197557;28;20749;-39
2022/04/10 02:02:16;;;;;;;15.40;5.00;;;;;;;5.94;54.21;101871.09;5203057;28;20854;-38
2022/04/10 02:04:48;;;;;;;15.13;4.75;;;;;;;5.87;54.41;101882.88;5200432;28;20998;-39
2022/04/10 02:07:20;;;;;;;17.65;4.70;;;;;;;5.82;54.59;101861.34;5200290;28;20421;-39
2022/04/10 02:09:54;;;;;;;13.27;4.90;;;;;;;5.90;54.40;101876.59;5202152;28;20434;-40
2022/04/10 02:12:27;;;;;;;10.17;4.43;;;;;;;5.82;54.40;101866.56;5199729;28;20604;-38
2022/04/10 02:14:59;;;;;;;14.77;4.45;;;;;;;5.78;54.55;101865.09;5198424;28;22658;-38
2022/04/10 02:17:32;;;;;;;14.00;5.13;;;;;;;5.86;54.65;101881.19;5194062;28;20409;-39
2022/04/10 02:20:05;;;;;;;17.65;5.85;;;;;;;5.85;54.51;101876.88;5194677;28;20454;-38
2022/04/10 02:22:38;;;;;;;9.45;4.68;;;;;;;5.80;54.44;101876.34;5197625;28;20903;-38
2022/04/10 02:25:12;;;;;;;15.43;4.77;;;;;;;5.82;54.62;101886.72;5188675;28;20493;-39
2022/04/10 02:27:44;;;;;;;14.75;4.70;;;;;;;5.76;54.64;101886.16;5196985;28;21062;-39
2022/04/10 02:30:18;;;;;;;10.80;4.43;;;;;;;5.70;54.46;101877.84;5199791;28;20492;-38
2022/04/10 02:32:50;;;;;;;16.13;5.13;;;;;;;5.67;54.70;101883.25;5196709;28;20899;-38
2022/04/10 02:35:23;;;;;;;12.07;5.30;;;;;;;5.60;54.67;101879.31;5192714;28;20470;-39
2022/04/10 02:37:55;;;;;;;11.18;4.88;;;;;;;5.55;54.72;101888.28;5200398;28;20475;-41
2022/04/10 02:40:29;;;;;;;18.50;5.05;;;;;;;5.50;54.70;101879.84;5196194;28;20895;-40
2022/04/10 02:43:01;;;;;;;15.23;5.05;;;;;;;5.44;54.83;101877.59;5192969;28;20423;-39
2022/04/10 02:45:34;;;;;;;10.88;4.90;;;;;;;5.16;54.69;101838.25;5196157;28;20935;-39
2022/04/10 02:48:09;;;;;;;8.10;4.30;;;;;;;5.37;54.68;101886.75;5195572;28;20419;-39
2022/04/10 02:50:42;;;;;;;15.13;4.97;;;;;;;5.31;54.66;101882.72;5196979;28;20411;-44
2022/04/10 02:53:14;;;;;;;14.90;5.43;;;;;;;5.33;54.77;101887.88;5195558;28;20546;-40
2022/04/10 02:55:48;;;;;;;13.17;4.70;;;;;;;5.30;54.97;101888.91;5197204;28;20495;-41
2022/04/10 02:58:24;;;;;;;8.52;4.35;;;;;;;5.26;54.91;101881.28;5197203;28;20455;-40
2022/04/10 03:00:56;;;;;;;8.18;3.75;;;;;;;5.28;55.04;101892.53;5198628;28;20417;-40
2022/04/10 03:03:29;;;;;;;8.55;4.75;;;;;;;5.26;54.98;101889.16;5195319;28;20505;-42
2022/04/10 03:06:01;;;;;;;14.95;4.97;;;;;;;5.20;54.85;101886.88;5193760;28;20810;-40
2022/04/10 03:08:34;;;;;;;13.82;5.07;;;;;;;5.22;55.30;101895.50;5191386;28;20641;-39
2022/04/10 03:11:07;;;;;;;11.00;4.50;;;;;;;5.21;55.16;101896.47;5199531;28;20499;-39
2022/04/10 03:13:40;;;;;;;15.02;4.70;;;;;;;5.20;55.13;101889.50;5191127;28;20484;-40
2022/04/10 03:16:12;;;;;;;12.82;4.82;;;;;;;5.18;55.06;101902.72;5199880;28;20441;-38
2022/04/10 03:18:45;;;;;;;14.75;4.82;;;;;;;5.21;55.10;101914.78;5188507;28;20806;-39
2022/04/10 03:21:17;;;;;;;13.45;5.28;;;;;;;5.04;55.17;101872.06;5196297;28;20519;-38
2022/04/10 03:23:50;;;;;;;11.43;4.72;;;;;;;5.16;55.39;101911.59;5187882;28;20407;-39
2022/04/10 03:26:24;;;;;;;10.90;5.05;;;;;;;5.19;55.23;101903.53;5196184;28;20536;-39
2022/04/10 03:28:57;;;;;;;12.00;4.70;;;;;;;5.12;55.08;101892.59;5181991;28;20465;-41
2022/04/10 03:31:29;;;;;;;13.75;4.40;;;;;;;5.17;55.25;101908.88;5192864;28;20517;-38
2022/04/10 03:34:02;;;;;;;15.45;4.47;;;;;;;5.00;55.17;101877.59;5198216;28;20896;-39
2022/04/10 03:36:34;;;;;;;14.10;5.25;;;;;;;5.09;55.19;101898.00;5192972;28;20415;-38
2022/04/10 03:39:07;;;;;;;10.63;4.82;;;;;;;5.12;55.30;101903.06;5190841;28;20705;-39
2022/04/10 03:41:41;;;;;;;15.93;4.45;;;;;;;5.11;55.75;101908.38;5198303;28;20468;-42
2022/04/10 03:44:13;;;;;;;12.45;4.28;;;;;;;5.12;55.37;101897.00;5188267;28;20409;-38
2022/04/10 03:46:45;;;;;;;11.48;4.28;;;;;;;5.04;55.45;101893.00;5194708;28;20509;-38
2022/04/10 03:49:18;;;;;;;15.80;3.70;;;;;;;5.13;55.75;101909.13;5195554;28;20536;-40
2022/04/10 03:51:50;;;;;;;16.35;4.72;;;;;;;5.09;55.49;101904.06;5196726;28;20427;-43
2022/04/10 03:54:23;;;;;;;15.25;4.63;;;;;;;5.08;55.43;101907.63;5194940;28;20480;-39
2022/04/10 03:56:59;;;;;;;8.38;4.32;;;;;;;5.12;55.49;101917.94;5194140;28;20407;-38
2022/04/10 03:59:32;;;;;;;8.98;4.45;;;;;;;4.80;55.63;101899.63;5192325;28;20403;-38
2022/04/10 04:02:05;;;;;;;16.90;4.30;;;;;;;5.10;55.75;101915.38;5199233;28;20670;-40
2022/04/10 04:04:38;;;;;;;8.50;4.38;;;;;;;5.05;55.61;101913.06;5198778;28;20413;-39
2022/04/10 04:07:13;;;;;;;11.05;4.00;;;;;;;5.05;55.87;101902.56;5190224;28;25954;-41
2022/04/10 04:09:45;;;;;;;9.90;4.50;;;;;;;5.04;55.92;101900.03;5194822;28;20410;-39
2022/04/10 04:12:19;;;;;;;11.60;5.00;;;;;;;5.17;55.87;101923.72;5191539;28;20424;-39
2022/04/10 04:14:51;;;;;;;10.02;4.63;;;;;;;5.20;55.79;101926.19;5189604;28;20862;-39
2022/04/10 04:17:24;;;;;;;11.07;4.50;;;;;;;5.18;55.74;101928.91;5194188;28;20822;-39
2022/04/10 04:19:56;;;;;;;13.63;4.07;;;;;;;5.21;55.93;101928.72;5191849;28;20509;-41
2022/04/10 04:22:29;;;;;;;11.93;4.10;;;;;;;5.22;55.71;101935.63;5194809;28;20890;-38
2022/04/10 04:25:04;;;;;;;9.85;4.45;;;;;;;5.13;55.94;101917.00;5208244;28;20508;-41
2022/04/10 04:27:39;;;;;;;9.98;4.28;;;;;;;5.16;55.99;101919.44;5191357;28;20794;-38
2022/04/10 04:30:12;;;;;;;10.23;4.07;;;;;;;5.27;55.95;101932.78;5193480;28;20414;-39
2022/04/10 04:32:44;;;;;;;14.93;3.90;;;;;;;5.25;55.91;101935.47;5192095;28;20480;-44
2022/04/10 04:35:17;;;;;;;12.52;4.07;;;;;;;5.31;55.94;101934.25;5197195;28;20496;-39
2022/04/10 04:37:49;;;;;;;12.63;3.75;;;;;;;5.39;55.85;101937.31;5191847;28;20444;-38
2022/04/10 04:40:22;;;;;;;11.00;3.92;;;;;;;5.42;55.83;101942.34;5200060;28;20905;-39
2022/04/10 04:42:56;;;;;;;14.32;4.03;;;;;;;5.43;55.79;101932.72;5199803;28;20823;-38
2022/04/10 04:45:28;;;;;;;12.98;4.07;;;;;;;5.48;55.81;101949.84;5195604;28;20458;-41
2022/04/10 04:48:01;;;;;;;11.05;4.10;;;;;;;5.51;55.72;101944.44;5195007;28;20413;-38
2022/04/10 04:50:33;;;;;;;16.85;4.72;;;;;;;5.53;55.92;101949.56;5194690;28;20844;-38
2022/04/10 04:53:06;;;;;;;11.23;4.20;;;;;;;5.58;55.66;101951.94;5191129;28;20436;-38
2022/04/10 04:55:39;;;;;;;12.38;3.65;;;;;;;5.61;55.85;101951.75;5193036;28;20424;-39
2022/04/10 04:58:12;;;;;;;8.05;3.80;;;;;;;5.67;55.56;101988.09;5190307;28;20429;-40
2022/04/10 05:00:45;;;;;;;5.95;2.88;;;;;;;5.68;55.97;101995.03;5192067;28;20421;-40
2022/04/10 05:03:17;;;;;;;9.97;3.57;;;;;;;5.67;55.85;101995.97;5189375;28;20887;-40
2022/04/10 05:05:50;;;;;;;6.63;2.30;;;;;;;5.63;56.17;102002.28;5197296;28;20828;-41
2022/04/10 05:08:22;;;;;;;6.03;3.10;;;;;;;5.63;56.09;102004.91;5199025;28;20502;-40
2022/04/10 05:10:55;;;;;;;13.60;3.22;;;;;;;5.45;55.95;101984.09;5196480;28;20443;-40
2022/04/10 05:13:29;;;;;;;10.73;3.45;;;;;;;5.62;55.98;102005.84;5199167;28;20510;-40
2022/04/10 05:16:02;;;;;;;7.95;3.38;;;;;;;5.57;55.94;102011.34;5192299;28;20497;-39
2022/04/10 05:18:35;;;;;;;8.85;3.50;;;;;;;5.46;56.27;102001.50;5173884;28;20473;-41
2022/04/10 05:21:07;;;;;;;7.97;2.95;;;;;;;5.66;56.13;102033.56;5188350;28;20583;-42
2022/04/10 05:23:40;;;;;;;4.95;2.25;;;;;;;5.61;56.39;102040.88;5195756;28;20438;-42
2022/04/10 05:26:12;;;;;;;6.10;2.78;;;;;;;5.57;56.47;102036.72;5197211;28;20879;-41
2022/04/10 05:28:46;;;;;;;7.30;3.35;;;;;;;5.53;56.44;102026.41;5195090;28;20405;-40
2022/04/10 05:31:18;;;;;;;9.25;2.55;;;;;;;5.54;56.40;102025.50;5190082;28;20423;-40
2022/04/10 05:33:51;;;;;;;7.53;2.78;;;;;;;5.56;56.54;102014.91;5196501;28;20426;-39
2022/04/10 05:36:24;;;;;;;6.10;2.60;;;;;;;5.58;56.73;102020.91;5180156;28;20459;-39
2022/04/10 05:38:56;;;;;;;6.55;2.30;;;;;;;5.53;56.70;102000.19;5193417;28;20860;-39
2022/04/10 05:41:29;;;;;;;6.28;3.00;;;;;;;5.66;56.58;102023.91;5194727;28;20415;-40
2022/04/10 05:44:02;;;;;;;8.25;3.03;;;;;;;5.64;56.64;102015.31;5192608;28;20862;-40
2022/04/10 05:46:38;;;;;;;7.05;3.30;;;;;;;5.87;56.73;102031.47;5200661;28;20478;-39
2022/04/10 05:49:10;;;;;;;10.77;3.78;;;;;;;5.90;56.49;102021.66;5196188;28;20421;-38
2022/04/10 05:51:43;;;;;;;9.00;3.78;;;;;;;6.05;56.62;102029.59;5199563;28;20484;-39
2022/04/10 05:54:20;;;;;;;4.37;2.47;;;;;;;6.11;56.46;102026.59;5197637;28;20438;-39
2022/04/10 05:56:52;;;;;;;5.93;3.15;;;;;;;6.17;56.47;102029.69;5200935;28;20445;-39
2022/04/10 05:59:26;;;;;;;10.40;3.40;;;;;;;6.24;56.47;102030.16;5202222;28;20403;-39
2022/04/10 06:01:59;;;;;;;11.43;3.45;;;;;;;6.29;56.69;102036.00;5199352;28;20442;-39
2022/04/10 06:04:32;;;;;;;11.77;4.00;;;;;;;6.34;56.57;102036.53;5196480;28;20422;-38
2022/04/10 06:07:04;;;;;;;5.15;2.80;;;;;;;6.36;56.54;102031.22;5200890;28;20491;-39
2022/04/10 06:09:37;;;;;;;7.28;3.83;;;;;;;6.47;56.49;102041.88;5199690;28;20969;-40
2022/04/10 06:12:11;;;;;;;6.80;3.10;;;;;;;6.57;56.70;102047.44;5195516;28;20995;-39
2022/04/10 06:14:45;;;;;;;8.57;3.47;;;;;;;6.65;56.74;102056.50;5191891;28;20496;-40
2022/04/10 06:17:18;;;;;;;9.77;3.45;;;;;;;7.43;56.58;102044.63;5194967;28;20485;-39
2022/04/10 06:19:50;;;;;;;5.10;2.22;;;;;;;9.35;54.75;102048.06;5197689;28;20421;-39
2022/04/10 06:22:23;;;;;;;5.93;2.25;;;;;;;11.02;53.43;102054.59;5198137;28;20878;-39
2022/04/10 06:24:56;;;;;;;11.88;2.83;;;;;;;11.24;53.65;102055.53;5192426;28;20422;-40
2022/04/10 06:27:28;;;;;;;11.10;2.80;;;;;;;11.00;54.22;102053.91;5192969;28;20439;-40
2022/04/10 06:30:02;;;;;;;12.35;3.10;;;;;;;10.68;54.51;102045.03;5199018;28;20496;-39
2022/04/10 06:32:35;;;;;;;6.47;2.35;;;;;;;10.37;54.92;102055.34;5203742;28;20924;-39
2022/04/10 06:35:08;;;;;;;9.55;2.60;;;;;;;10.03;54.88;102054.44;5195048;28;20411;-41
2022/04/10 06:37:42;;;;;;;9.50;2.80;;;;;;;9.74;55.41;102061.91;5196969;28;20425;-42
2022/04/10 06:40:15;;;;;;;10.02;2.85;;;;;;;9.48;55.50;102059.41;5195097;28;20401;-40
2022/04/10 06:42:47;;;;;;;10.38;2.72;;;;;;;9.21;55.53;102065.72;5200343;28;20494;-39
2022/04/10 06:45:21;;;;;;;8.07;2.40;;;;;;;9.00;55.90;102076.00;5198414;28;20906;-39
2022/04/10 06:47:54;;;;;;;9.38;2.78;;;;;;;8.85;56.21;102086.78;5200388;28;20439;-39
2022/04/10 06:50:26;;;;;;;10.13;2.78;;;;;;;8.85;56.09;102076.25;5192304;28;20415;-39
2022/04/10 06:52:59;;;;;;;7.25;2.92;;;;;;;8.84;56.29;102090.38;5190002;28;20921;-40
2022/04/10 06:55:31;;;;;;;10.48;3.13;;;;;;;9.35;56.01;102084.97;5202423;28;20908;-39
2022/04/10 06:58:04;;;;;;;9.32;2.75;;;;;;;10.96;54.80;102081.56;5195447;28;20882;-39
2022/04/10 07:00:39;;;;;;;10.15;2.85;;;;;;;12.82;53.03;102074.91;5195587;28;20576;-39
2022/04/10 07:03:11;;;;;;;5.25;2.15;;;;;;;14.52;51.39;102077.19;5193584;28;20414;-42
2022/04/10 07:05:44;;;;;;;7.72;1.88;;;;;;;15.89;50.27;102072.72;5193792;28;20498;-40
2022/04/10 07:08:16;;;;;;;10.75;3.20;;;;;;;17.11;48.82;102064.53;5192363;28;20510;-40
2022/04/10 07:10:48;;;;;;;6.32;2.67;;;;;;;18.46;47.51;102089.13;5192129;28;20888;-40
2022/04/10 07:13:23;;;;;;;15.05;3.15;;;;;;;19.57;46.31;102079.06;5195377;28;20508;-40
2022/04/10 07:15:57;;;;;;;10.50;3.42;;;;;;;20.57;45.01;102080.69;5189634;28;20452;-40
2022/04/10 07:18:29;;;;;;;8.40;3.72;;;;;;;21.57;43.91;102090.78;5189558;28;20460;-40
2022/04/10 07:21:02;;;;;;;17.27;5.05;;;;;;;22.45;42.94;102085.06;5190746;28;20415;-40
2022/04/10 07:23:42;;;;;;;14.40;4.35;;;;;;;23.18;42.05;102093.50;5194699;28;20469;-41
2022/04/10 07:26:16;;;;;;;12.20;4.30;;;;;;;23.85;41.16;102079.09;5191311;28;20797;-39
2022/04/10 07:28:48;;;;;;;10.27;3.20;;;;;;;24.39;40.43;102090.66;5208453;28;20422;-41
2022/04/10 07:31:23;;;;;;;8.07;2.13;;;;;;;24.82;39.92;102099.06;5200367;28;20409;-43
2022/04/10 07:33:55;;;;;;;12.47;2.27;;;;;;;25.04;39.53;102087.97;5209706;28;20418;-41
2022/04/10 07:36:28;;;;;;;6.88;1.98;;;;;;;25.26;39.39;102102.84;5195394;28;20431;-42
2022/04/10 07:39:02;;;;;;;7.15;2.42;;;;;;;25.41;38.71;102093.59;5190390;28;22140;-41
2022/04/10 07:41:34;;;;;;;15.77;5.95;;;;;;;25.53;38.39;102099.97;5202338;28;20512;-41
2022/04/10 07:44:07;;;;;;;10.63;4.13;;;;;;;25.45;38.21;102106.44;5206704;28;20530;-41
2022/04/10 07:49:30;;;;;;;8.23;2.73;;;;;;;25.66;37.68;102097.16;5197245;28;20411;-42
2022/04/10 07:52:03;;;;;;;8.55;2.60;;;;;;;25.93;37.15;102110.53;5189255;28;20428;-41
2022/04/10 07:54:36;;;;;;;7.70;1.90;;;;;;;25.96;37.00;102112.78;5192814;28;20514;-40
2022/04/10 07:57:08;;;;;;;4.82;1.40;;;;;;;26.01;36.87;102120.22;5191157;28;20442;-41
2022/04/10 07:59:40;;;;;;;8.77;1.92;;;;;;;25.92;36.74;102116.97;5189210;28;20450;-44
2022/04/10 08:02:14;;;;;;;7.43;1.40;;;;;;;25.34;37.03;102122.56;5188488;28;20407;-41
2022/04/10 08:04:47;;;;;;;5.00;1.53;;;;;;;24.21;37.72;102121.00;5189115;28;20521;-41
2022/04/10 08:07:21;;;;;;;5.90;1.23;;;;;;;23.26;38.31;102133.75;5189956;28;20494;-41
2022/04/10 08:09:54;;;;;;;9.55;1.70;;;;;;;23.25;38.45;102132.06;5189991;28;20769;-42
2022/04/10 08:12:27;;;;;;;7.90;1.42;;;;;;;23.38;38.00;102137.53;5189195;28;20437;-41
2022/04/10 08:15:00;;;;;;;5.78;1.45;;;;;;;23.38;37.83;102115.94;5187426;28;20419;-41
2022/04/10 08:17:33;;;;;;;8.03;1.90;;;;;;;23.48;37.85;102137.13;5189064;28;20410;-40
2022/04/10 08:20:08;;;;;;;7.15;1.70;;;;;;;23.48;37.85;102124.47;5190397;28;20414;-41
2022/04/10 08:22:41;;;;;;;9.80;1.50;;;;;;;23.51;38.02;102144.81;5190990;28;20403;-43
2022/04/10 08:25:16;;;;;;;7.27;1.53;;;;;;;23.48;38.00;102143.34;5188250;28;20427;-41
2022/04/10 08:27:48;;;;;;;5.65;1.77;;;;;;;23.37;38.20;102146.63;5190132;28;20419;-41
2022/04/10 08:30:21;;;;;;;4.53;1.55;;;;;;;23.23;38.42;102134.97;5194050;28;20429;-40
2022/04/10 08:32:58;;;;;;;5.90;1.10;;;;;;;23.04;38.71;102151.88;5190986;28;20854;-41
2022/04/10 08:35:31;;;;;;;7.47;1.42;;;;;;;22.55;39.14;102145.59;5192131;28;20468;-41
2022/04/10 08:38:03;;;;;;;7.97;1.60;;;;;;;22.26;39.25;102153.88;5190966;28;20426;-41
2022/04/10 08:40:36;;;;;;;10.13;1.40;;;;;;;22.07;39.63;102161.56;5188636;28;20512;-43
2022/04/10 08:43:11;;;;;;;5.82;1.55;;;;;;;21.80;39.99;102156.94;5189336;28;20967;-44
2022/04/10 08:45:46;;;;;;;8.13;1.40;;;;;;;21.56;40.27;102169.75;5186432;28;20405;-41
2022/04/10 08:48:20;;;;;;;3.80;1.70;;;;;;;21.33;40.59;102169.03;5187973;28;20908;-41
2022/04/10 08:50:54;;;;;;;3.88;1.33;;;;;;;21.01;40.88;102171.13;5194842;28;20544;-42
2022/04/10 08:53:27;;;;;;;10.35;1.50;;;;;;;20.78;41.22;102175.75;5189625;28;20400;-41
2022/04/10 08:56:01;;;;;;;5.90;1.30;;;;;;;20.47;41.37;102168.66;5190234;28;20443;-43
2022/04/10 08:58:34;;;;;;;7.60;1.10;;;;;;;20.14;41.45;102155.56;5189307;28;20410;-41
2022/04/10 09:01:06;;;;;;;6.80;1.50;;;;;;;19.91;41.74;102173.50;5195842;28;20497;-41
2022/04/10 09:03:40;;;;;;;6.63;1.80;;;;;;;19.51;42.07;102178.94;5185670;28;20448;-41
2022/04/10 09:06:13;;;;;;;7.93;1.90;;;;;;;19.18;42.39;102180.09;5186132;28;20443;-41
2022/04/10 09:08:46;;;;;;;6.63;1.30;;;;;;;18.88;42.41;102178.00;5190501;28;20406;-42
2022/04/10 09:11:19;;;;;;;8.27;1.65;;;;;;;18.43;42.55;102163.38;5190586;28;20423;-41
2022/04/10 09:13:51;;;;;;;3.60;1.17;;;;;;;18.23;42.53;102171.91;5193474;28;20456;-42
2022/04/10 09:16:25;;;;;;;4.78;1.05;;;;;;;17.97;42.52;102168.41;5192138;28;20791;-41
2022/04/10 09:19:01;;;;;;;8.77;1.80;;;;;;;17.80;42.50;102177.38;5197258;28;20415;-41
2022/04/10 09:21:36;;;;;;;8.38;1.50;;;;;;;17.61;42.61;102183.00;5195797;28;20430;-44
2022/04/10 09:24:11;;;;;;;4.25;1.35;;;;;;;17.51;42.53;102183.16;5199039;28;20407;-41
2022/04/10 09:26:47;;;;;;;8.27;1.83;;;;;;;17.23;42.64;102169.19;5192910;28;20847;-40
2022/04/10 09:29:21;;;;;;;5.15;1.75;;;;;;;17.07;42.54;102174.47;5197076;28;20492;-40
2022/04/10 09:31:55;;;;;;;8.13;2.00;;;;;;;17.00;42.45;102188.47;5193838;28;20418;-43
2022/04/10 09:34:29;;;;;;;4.47;1.58;;;;;;;16.83;42.44;102190.19;5193446;28;20898;-40
2022/04/10 09:37:05;;;;;;;8.82;1.73;;;;;;;16.60;42.26;102163.19;5191867;28;20426;-45
2022/04/10 09:39:40;;;;;;;5.32;1.38;;;;;;;16.78;42.17;102197.00;5196631;28;20411;-40
2022/04/10 09:42:14;;;;;;;4.38;1.25;;;;;;;16.78;41.81;102210.31;5202015;28;20411;-41
2022/04/10 09:44:46;;;;;;;7.07;1.40;;;;;;;16.71;41.69;102190.59;5194073;28;20473;-40
2022/04/10 09:47:38;;;;;;;6.35;1.35;;;;;;;16.69;41.46;102203.22;5193205;28;20479;-41
2022/04/10 09:50:13;;;;;;;8.25;1.42;;;;;;;15.97;41.18;102096.75;5187749;28;20554;-40
2022/04/10 09:52:45;;;;;;;6.72;1.10;;;;;;;16.63;40.98;102201.19;5190661;28;20472;-40
2022/04/10 09:55:37;;;;;;;7.60;1.67;;;;;;;16.56;40.68;102204.47;5191585;28;20498;-42
2022/04/10 09:58:11;;;;;;;29.73;4.10;;;;;;;16.39;40.57;102199.19;5189799;28;20945;-41
2022/04/10 10:00:45;;;;;;;4.93;1.63;;;;;;;16.30;40.51;102206.28;5187914;28;20469;-41
2022/04/10 10:03:19;;;;;;;6.22;1.45;;;;;;;16.24;40.33;102209.56;5196181;28;20414;-41
2022/04/10 10:05:54;;;;;;;6.03;1.30;;;;;;;16.06;40.31;102207.75;5197635;28;20787;-40
2022/04/10 10:08:28;;;;;;;8.30;2.10;;;;;;;15.93;40.11;102209.94;5192722;28;20431;-40
2022/04/10 10:11:02;;;;;;;5.07;1.30;;;;;;;15.80;40.04;102209.50;5196925;28;21142;-41
2022/04/10 10:13:35;;;;;;;4.07;1.42;;;;;;;15.45;39.79;102213.72;5192068;28;20449;-40
2022/04/10 10:16:09;;;;;;;6.68;1.40;;;;;;;15.37;39.92;102205.66;5191707;28;20406;-42
2022/04/10 10:18:44;;;;;;;4.50;1.30;;;;;;;15.43;39.64;102202.38;5187572;28;20399;-45
2022/04/10 10:21:37;;;;;;;6.82;2.28;;;;;;;15.52;39.24;102209.50;5199548;28;20768;-39
2022/04/10 10:24:12;;;;;;;6.70;1.90;;;;;;;15.57;39.05;102204.53;5193810;28;20411;-40
2022/04/10 10:27:05;;;;;;;6.15;1.65;;;;;;;15.51;38.71;102202.47;5189317;28;20415;-40
2022/04/10 10:30:03;;;;;;;10.88;1.67;;;;;;;15.61;38.52;102213.09;5192305;28;20473;-40
2022/04/10 10:32:45;;;;;;;4.00;1.45;;;;;;;15.64;38.42;102215.47;5192506;28;20416;-40
2022/04/10 10:35:32;;;;;;;7.43;1.63;;;;;;;15.58;38.18;102216.06;5193417;28;20848;-40
2022/04/10 10:38:21;;;;;;;7.47;1.90;;;;;;;15.45;38.17;102198.59;5191971;28;20415;-41
2022/04/10 10:41:09;;;;;;;7.07;1.30;;;;;;;15.38;38.14;102207.31;5194612;28;20433;-39
2022/04/10 10:43:42;;;;;;;7.65;1.42;;;;;;;15.44;37.89;102217.38;5187854;28;20702;-42
2022/04/10 10:46:22;;;;;;;7.95;1.92;;;;;;;15.19;38.04;102203.75;5195026;28;20433;-40
2022/04/10 10:49:18;;;;;;;7.35;1.73;;;;;;;15.25;38.02;102201.50;5190219;28;20423;-39
2022/04/10 10:51:51;;;;;;;7.95;1.80;;;;;;;15.38;37.81;102212.63;5187721;28;20399;-42
2022/04/10 10:54:34;;;;;;;6.20;1.70;;;;;;;15.49;37.68;102203.63;5195065;28;20786;-40
2022/04/10 10:57:39;;;;;;;4.80;2.10;;;;;;;15.56;37.45;102210.84;5190971;28;20487;-41
2022/04/10 11:00:20;;;;;;;6.40;1.35;;;;;;;15.66;37.48;102216.97;5190696;28;20435;-43
2022/04/10 11:02:54;;;;;;;9.23;2.73;;;;;;;15.74;37.32;102216.25;5195359;28;20428;-40
2022/04/10 11:05:34;;;;;;;6.03;1.75;;;;;;;15.64;37.40;102215.47;5193904;28;20423;-41
2022/04/10 11:08:09;;;;;;;6.50;1.80;;;;;;;15.48;37.33;102202.75;5194523;28;20413;-41
2022/04/10 11:10:54;;;;;;;5.28;2.22;;;;;;;15.38;37.40;102202.00;5186830;28;20411;-46
2022/04/10 11:13:40;;;;;;;9.93;2.15;;;;;;;15.40;37.45;102208.00;5188442;28;20415;-40
2022/04/10 11:16:15;;;;;;;5.97;1.80;;;;;;;15.28;37.41;102185.22;5188443;28;20492;-40
2022/04/10 11:18:52;;;;;;;5.97;1.98;;;;;;;15.44;37.46;102202.22;5188028;28;20414;-41
2022/04/10 11:21:25;;;;;;;8.32;2.22;;;;;;;15.45;37.44;102195.06;5189589;28;20454;-50
2022/04/10 11:24:00;;;;;;;6.68;2.03;;;;;;;15.48;37.33;102193.94;5192494;28;20413;-45
2022/04/10 11:26:45;;;;;;;7.53;2.50;;;;;;;15.55;37.17;102195.88;5191716;28;20411;-44
2022/04/10 11:29:22;;;;;;;11.00;2.63;;;;;;;15.52;37.20;102188.19;5189926;28;20438;-40
2022/04/10 11:31:55;;;;;;;7.13;2.00;;;;;;;15.35;37.23;102186.31;5189581;28;20466;-40
2022/04/10 11:34:29;;;;;;;9.57;2.20;;;;;;;15.24;37.31;102187.34;5194302;28;20522;-43
2022/04/10 11:37:03;;;;;;;8.07;1.90;;;;;;;15.16;37.37;102176.59;5191739;28;20451;-41
2022/04/10 11:39:37;;;;;;;6.60;2.10;;;;;;;15.22;37.44;102181.34;5195806;28;20413;-42
2022/04/10 11:42:11;;;;;;;7.75;2.25;;;;;;;15.23;37.48;102178.50;5196161;28;20494;-40
2022/04/10 11:44:44;;;;;;;8.40;2.17;;;;;;;15.40;37.14;102184.06;5189714;28;20402;-40
2022/04/10 11:47:51;;;;;;;8.32;2.03;;;;;;;15.48;37.08;102170.81;5195880;28;20498;-40
2022/04/10 11:50:25;;;;;;;4.75;2.08;;;;;;;15.51;37.04;102169.69;5188763;28;20799;-42
2022/04/10 11:53:01;;;;;;;6.85;2.58;;;;;;;15.40;37.11;102162.75;5192374;28;20508;-40
2022/04/10 11:55:36;;;;;;;10.27;3.15;;;;;;;15.43;37.13;102173.09;5194430;28;20405;-41
2022/04/10 11:58:16;;;;;;;8.52;2.20;;;;;;;15.45;37.13;102171.13;5194303;28;20415;-40
2022/04/10 12:00:53;;;;;;;5.00;2.30;;;;;;;15.43;37.01;102173.09;5189298;28;20506;-42
2022/04/10 12:03:27;;;;;;;6.33;2.20;;;;;;;15.46;36.84;102178.13;5187542;28;20582;-40